createdAt,value
2023-04-09T00:01:28.158Z,20.24
2023-04-09T00:03:58.345Z,20.07
2023-04-09T00:06:28.927Z,20.01
2023-04-09T00:08:58.924Z,20.00
2023-04-09T00:11:29.406Z,19.87
2023-04-09T00:14:00.140Z,19.81
2023-04-09T00:16:30.694Z,19.82
2023-04-09T00:19:00.765Z,19.66
2023-04-09T00:21:31.192Z,19.73
2023-04-09T00:24:01.160Z,19.83
2023-04-09T00:26:32.412Z,19.84
2023-04-09T00:29:02.660Z,19.83
2023-04-09T00:31:34.110Z,19.75
2023-04-09T00:34:04.146Z,19.75
2023-04-09T00:36:34.585Z,19.71
2023-04-09T00:39:04.604Z,19.72
2023-04-09T00:41:35.137Z,19.66
2023-04-09T00:44:05.117Z,19.58
2023-04-09T00:46:35.599Z,19.47
2023-04-09T00:49:05.645Z,19.46
2023-04-09T00:51:37.921Z,19.40
2023-04-09T00:54:08.705Z,19.39
2023-04-09T00:56:40.319Z,19.35
2023-04-09T00:59:10.419Z,19.35
2023-04-09T01:01:41.001Z,19.31
2023-04-09T01:04:11.457Z,19.28
2023-04-09T01:06:57.574Z,19.22
2023-04-09T01:09:35.400Z,19.20
2023-04-09T01:12:24.371Z,19.25
2023-04-09T01:15:09.358Z,19.29
2023-04-09T01:17:52.394Z,19.23
2023-04-09T01:20:42.633Z,19.28
2023-04-09T01:23:18.109Z,19.23
2023-04-09T01:26:18.446Z,19.23
2023-04-09T01:28:58.656Z,19.16
2023-04-09T01:31:38.197Z,19.18
2023-04-09T01:34:11.392Z,19.13
2023-04-09T01:36:42.990Z,19.12
2023-04-09T01:39:13.582Z,19.11
2023-04-09T01:41:44.465Z,19.20
2023-04-09T01:44:15.881Z,19.17
2023-04-09T01:46:48.152Z,19.18
2023-04-09T01:49:19.155Z,19.20
2023-04-09T01:51:50.566Z,19.19
2023-04-09T01:54:21.009Z,19.15
2023-04-09T01:56:51.072Z,19.12
2023-04-09T01:59:21.602Z,19.01
2023-04-09T02:02:02.932Z,18.90
2023-04-09T02:04:42.169Z,18.75
2023-04-09T02:07:47.728Z,18.72
2023-04-09T02:10:22.030Z,18.75
2023-04-09T02:12:55.909Z,18.70
2023-04-09T02:15:27.254Z,18.71
2023-04-09T02:17:57.360Z,18.77
2023-04-09T02:20:27.942Z,18.76
2023-04-09T02:22:57.912Z,18.77
2023-04-09T02:25:28.901Z,18.73
2023-04-09T02:27:59.385Z,18.75
2023-04-09T02:30:29.681Z,18.74
2023-04-09T02:33:00.790Z,18.79
2023-04-09T02:35:31.233Z,18.75
2023-04-09T02:38:01.941Z,18.64
2023-04-09T02:40:32.331Z,18.49
2023-04-09T02:43:02.747Z,18.46
2023-04-09T02:45:33.111Z,18.44
2023-04-09T02:48:03.903Z,18.48
2023-04-09T02:50:37.631Z,18.51
2023-04-09T02:53:08.349Z,18.58
2023-04-09T02:55:38.413Z,18.57
2023-04-09T02:58:08.809Z,18.46
2023-04-09T03:00:38.866Z,18.48
2023-04-09T03:03:09.789Z,18.61
2023-04-09T03:05:40.150Z,18.62
2023-04-09T03:08:10.570Z,18.65
2023-04-09T03:10:40.633Z,18.65
2023-04-09T03:13:11.114Z,18.60
2023-04-09T03:15:41.487Z,18.59
2023-04-09T03:18:11.988Z,18.72
2023-04-09T03:20:41.897Z,18.67
2023-04-09T03:23:14.724Z,18.72
2023-04-09T03:25:50.002Z,18.73
2023-04-09T03:28:21.802Z,18.68
2023-04-09T03:30:55.494Z,18.52
2023-04-09T03:33:29.256Z,18.57
2023-04-09T03:36:01.551Z,18.59
2023-04-09T03:38:52.376Z,18.58
2023-04-09T03:41:48.329Z,18.54
2023-04-09T03:44:20.722Z,18.48
2023-04-09T03:47:09.654Z,18.46
2023-04-09T03:49:41.310Z,18.39
2023-04-09T03:52:20.079Z,18.44
2023-04-09T03:54:58.818Z,18.52
2023-04-09T03:57:30.229Z,18.55
2023-04-09T04:00:01.168Z,18.58
2023-04-09T04:02:39.133Z,18.57
2023-04-09T04:05:12.752Z,18.49
2023-04-09T04:07:48.463Z,18.38
2023-04-09T04:10:27.480Z,18.34
2023-04-09T04:12:57.605Z,18.37
2023-04-09T04:15:44.203Z,18.28
2023-04-09T04:18:16.571Z,18.22
2023-04-09T04:20:50.671Z,18.14
2023-04-09T04:23:20.694Z,18.08
2023-04-09T04:26:13.678Z,18.10
2023-04-09T04:28:44.446Z,18.02
2023-04-09T04:31:22.585Z,18.07
2023-04-09T04:33:52.901Z,18.09
2023-04-09T04:36:23.309Z,18.11
2023-04-09T04:38:54.986Z,18.15
2023-04-09T04:41:32.685Z,18.11
2023-04-09T04:44:25.231Z,18.01
2023-04-09T04:47:04.924Z,17.75
2023-04-09T04:49:35.068Z,17.64
2023-04-09T04:52:08.917Z,17.51
2023-04-09T04:54:41.763Z,17.52
2023-04-09T04:57:14.153Z,17.51
2023-04-09T04:59:44.483Z,17.50
2023-04-09T05:02:16.739Z,17.48
2023-04-09T05:05:12.362Z,17.47
2023-04-09T05:07:50.511Z,17.59
2023-04-09T05:10:21.760Z,17.60
2023-04-09T05:12:52.407Z,17.66
2023-04-09T05:15:32.659Z,17.67
2023-04-09T05:18:03.087Z,17.59
2023-04-09T05:20:33.296Z,17.58
2023-04-09T05:23:13.721Z,17.56
2023-04-09T05:25:49.684Z,17.48
2023-04-09T05:28:29.545Z,17.54
2023-04-09T05:31:14.177Z,17.64
2023-04-09T05:33:52.509Z,17.50
2023-04-09T05:36:27.392Z,17.61
2023-04-09T05:38:57.967Z,17.64
2023-04-09T05:41:27.989Z,17.61
2023-04-09T05:44:20.374Z,17.57
2023-04-09T05:46:51.970Z,17.52
2023-04-09T05:49:27.032Z,17.58
2023-04-09T05:51:59.359Z,17.56
2023-04-09T05:54:33.577Z,17.41
2023-04-09T05:57:03.952Z,17.65
2023-04-09T05:59:37.669Z,17.63
2023-04-09T06:02:08.057Z,17.58
2023-04-09T06:04:38.703Z,17.60
2023-04-09T06:07:08.776Z,17.66
2023-04-09T06:09:39.514Z,17.73
2023-04-09T06:12:10.846Z,17.81
2023-04-09T06:14:41.596Z,17.87
2023-04-09T06:17:11.758Z,17.80
2023-04-09T06:19:42.267Z,17.69
2023-04-09T06:22:12.537Z,17.67
2023-04-09T06:24:42.893Z,17.65
2023-04-09T06:27:13.231Z,17.47
2023-04-09T06:29:43.610Z,17.35
2023-04-09T06:32:13.433Z,17.39
2023-04-09T06:34:43.831Z,17.48
2023-04-09T06:37:13.926Z,17.55
2023-04-09T06:39:53.857Z,17.65
2023-04-09T06:42:30.415Z,17.60
2023-04-09T06:45:10.128Z,17.50
2023-04-09T06:47:40.219Z,17.59
2023-04-09T06:50:10.892Z,17.37
2023-04-09T06:52:41.048Z,17.04
2023-04-09T06:55:12.599Z,17.00
2023-04-09T06:57:42.749Z,16.87
2023-04-09T07:00:13.616Z,16.75
2023-04-09T07:02:43.971Z,16.57
2023-04-09T07:05:14.591Z,16.61
2023-04-09T07:07:44.650Z,16.62
2023-04-09T07:10:15.094Z,16.80
2023-04-09T07:12:45.122Z,16.48
2023-04-09T07:15:15.629Z,16.50
2023-04-09T07:17:45.850Z,16.55
2023-04-09T07:20:16.740Z,16.62
2023-04-09T07:22:47.138Z,16.53
2023-04-09T07:25:18.175Z,16.62
2023-04-09T07:27:48.320Z,16.61
2023-04-09T07:30:18.765Z,16.57
2023-04-09T07:32:48.663Z,16.63
2023-04-09T07:35:19.883Z,16.75
2023-04-09T07:37:49.967Z,16.78
2023-04-09T07:40:21.099Z,16.94
2023-04-09T07:42:51.915Z,16.96
2023-04-09T07:45:22.390Z,16.94
2023-04-09T07:47:52.814Z,17.03
2023-04-09T07:50:23.527Z,17.06
2023-04-09T07:52:54.381Z,17.05
2023-04-09T07:55:24.412Z,17.09
2023-04-09T07:57:54.851Z,17.12
2023-04-09T08:00:25.026Z,16.90
2023-04-09T08:02:55.727Z,17.04
2023-04-09T08:05:25.892Z,17.10
2023-04-09T08:07:57.003Z,17.10
2023-04-09T08:10:28.079Z,17.03
2023-04-09T08:12:58.587Z,17.12
2023-04-09T08:15:28.544Z,17.12
2023-04-09T08:17:59.371Z,17.16
2023-04-09T08:20:30.509Z,17.13
2023-04-09T08:23:00.997Z,16.82
2023-04-09T08:25:31.050Z,16.55
2023-04-09T08:28:01.626Z,16.53
2023-04-09T08:30:31.787Z,16.72
2023-04-09T08:33:05.123Z,16.84
2023-04-09T08:35:35.412Z,16.86
2023-04-09T08:38:05.941Z,16.98
2023-04-09T08:40:39.117Z,17.05
2023-04-09T08:43:11.806Z,17.06
2023-04-09T08:45:43.175Z,17.05
2023-04-09T08:48:15.870Z,17.05
2023-04-09T08:50:47.762Z,16.80
2023-04-09T08:53:19.998Z,16.64
2023-04-09T08:55:50.387Z,16.51
2023-04-09T08:58:20.836Z,16.32
2023-04-09T09:00:50.835Z,16.13
2023-04-09T09:03:21.421Z,16.01
2023-04-09T09:05:51.576Z,16.00
2023-04-09T09:08:27.151Z,15.97
2023-04-09T09:10:57.192Z,15.95
2023-04-09T09:13:28.906Z,15.96
2023-04-09T09:16:19.550Z,16.04
2023-04-09T09:18:50.889Z,16.09
2023-04-09T09:21:22.099Z,16.13
2023-04-09T09:23:52.325Z,16.21
2023-04-09T09:26:28.636Z,16.26
2023-04-09T09:29:02.393Z,16.15
2023-04-09T09:31:33.037Z,16.11
2023-04-09T09:34:10.768Z,16.15
2023-04-09T09:36:41.452Z,16.05
2023-04-09T09:39:13.284Z,16.03
2023-04-09T09:41:44.779Z,16.05
2023-04-09T09:44:32.251Z,16.18
2023-04-09T09:47:05.020Z,16.20
2023-04-09T09:49:35.088Z,16.21
2023-04-09T09:52:10.366Z,16.33
2023-04-09T09:54:43.708Z,16.35
2023-04-09T09:57:15.254Z,16.41
2023-04-09T09:59:53.416Z,16.52
2023-04-09T10:02:28.022Z,16.64
2023-04-09T10:05:02.692Z,16.80
2023-04-09T10:07:33.172Z,16.72
2023-04-09T10:10:04.813Z,16.84
2023-04-09T10:12:35.858Z,17.12
2023-04-09T10:15:07.482Z,17.50
2023-04-09T10:17:37.980Z,17.92
2023-04-09T10:20:14.758Z,18.19
2023-04-09T10:22:49.168Z,18.24
2023-04-09T10:25:19.862Z,18.34
2023-04-09T10:28:02.309Z,18.51
2023-04-09T10:30:39.006Z,18.63
2023-04-09T10:33:17.155Z,18.80
2023-04-09T10:35:50.407Z,19.04
2023-04-09T10:38:44.661Z,19.40
2023-04-09T10:41:18.395Z,19.79
2023-04-09T10:43:49.610Z,19.95
2023-04-09T10:46:31.949Z,20.39
2023-04-09T10:49:15.242Z,20.71
2023-04-09T10:52:00.209Z,21.24
2023-04-09T10:54:36.523Z,21.21
2023-04-09T10:57:10.177Z,21.38
2023-04-09T10:59:46.549Z,21.73
2023-04-09T11:02:40.117Z,22.25
2023-04-09T11:05:35.070Z,22.55
2023-04-09T11:08:07.233Z,23.08
2023-04-09T11:10:38.942Z,23.37
2023-04-09T11:13:15.587Z,23.65
2023-04-09T11:15:47.069Z,23.81
2023-04-09T11:18:28.658Z,23.44
2023-04-09T11:21:04.370Z,23.48
2023-04-09T11:23:35.095Z,23.74
2023-04-09T11:26:05.126Z,24.39
2023-04-09T11:28:36.814Z,24.76
2023-04-09T11:31:08.160Z,24.84
2023-04-09T11:33:38.671Z,25.15
2023-04-09T11:36:08.864Z,25.23
2023-04-09T11:38:40.263Z,25.08
2023-04-09T11:41:14.089Z,25.40
2023-04-09T11:43:44.699Z,25.25
2023-04-09T11:46:14.922Z,25.51
2023-04-09T11:48:45.604Z,25.76
2023-04-09T11:51:15.749Z,25.58
2023-04-09T11:53:46.159Z,25.79
2023-04-09T11:56:16.215Z,25.80
2023-04-09T11:58:50.359Z,25.63
2023-04-09T12:01:23.320Z,26.35
2023-04-09T12:03:57.678Z,27.30
2023-04-09T12:06:29.097Z,27.28
2023-04-09T12:09:00.988Z,27.54
2023-04-09T12:11:32.845Z,27.75
2023-04-09T12:14:06.868Z,27.29
2023-04-09T12:16:37.525Z,27.46
2023-04-09T12:19:12.537Z,27.39
2023-04-09T12:21:50.273Z,27.80
2023-04-09T12:24:22.800Z,28.82
2023-04-09T12:26:52.459Z,28.42
2023-04-09T12:29:23.204Z,29.88
2023-04-09T12:31:55.011Z,30.30
2023-04-09T12:34:25.048Z,30.38
2023-04-09T12:36:55.476Z,29.96
2023-04-09T12:39:25.490Z,30.72
2023-04-09T12:41:55.840Z,31.28
2023-04-09T12:44:25.886Z,31.79
2023-04-09T12:46:56.489Z,31.61
2023-04-09T12:49:26.845Z,31.43
2023-04-09T12:51:57.479Z,32.07
2023-04-09T12:54:27.847Z,31.82
2023-04-09T12:56:58.386Z,32.63
2023-04-09T12:59:28.935Z,32.18
2023-04-09T13:01:59.573Z,32.10
2023-04-09T13:04:29.819Z,32.85
2023-04-09T13:07:00.324Z,32.93
2023-04-09T13:09:30.388Z,33.91
2023-04-09T13:12:00.865Z,34.19
2023-04-09T13:14:30.894Z,34.64
2023-04-09T13:17:01.476Z,35.28
2023-04-09T13:19:31.577Z,35.79
2023-04-09T13:22:02.145Z,35.53
2023-04-09T13:24:32.488Z,35.22
2023-04-09T13:27:03.243Z,34.41
2023-04-09T13:29:33.494Z,34.24
2023-04-09T13:32:08.101Z,33.92
2023-04-09T13:34:38.329Z,33.77
2023-04-09T13:37:09.168Z,33.75
2023-04-09T13:39:39.171Z,33.11
2023-04-09T13:42:13.730Z,33.75
2023-04-09T13:44:46.254Z,33.76
2023-04-09T13:47:18.390Z,33.12
2023-04-09T13:49:48.502Z,33.87
2023-04-09T13:52:19.297Z,34.08
2023-04-09T13:54:50.648Z,34.19
2023-04-09T13:57:21.347Z,34.31
2023-04-09T13:59:51.688Z,33.52
2023-04-09T14:02:22.438Z,33.47
2023-04-09T14:04:52.602Z,34.32
2023-04-09T14:07:22.975Z,34.68
2023-04-09T14:09:53.075Z,34.92
2023-04-09T14:12:24.195Z,34.30
2023-04-09T14:14:55.229Z,34.46
2023-04-09T14:17:25.690Z,34.25
2023-04-09T14:19:55.700Z,35.13
2023-04-09T14:22:26.721Z,35.46
2023-04-09T14:24:56.782Z,35.41
2023-04-09T14:27:27.592Z,35.77
2023-04-09T14:29:57.642Z,35.24
2023-04-09T14:32:28.084Z,34.46
2023-04-09T14:34:58.157Z,33.94
2023-04-09T14:37:28.912Z,35.12
2023-04-09T14:39:59.129Z,36.08
2023-04-09T14:42:29.581Z,36.73
2023-04-09T14:44:59.633Z,35.66
2023-04-09T14:47:30.080Z,34.82
2023-04-09T14:50:00.299Z,35.90
2023-04-09T14:52:31.666Z,37.15
2023-04-09T14:55:01.697Z,37.57
2023-04-09T14:57:32.511Z,38.04
2023-04-09T15:00:02.648Z,37.87
2023-04-09T15:02:33.222Z,37.65
2023-04-09T15:05:04.856Z,36.59
2023-04-09T15:07:35.845Z,37.40
2023-04-09T15:10:06.103Z,38.22
2023-04-09T15:12:36.598Z,38.56
2023-04-09T15:15:11.020Z,38.69
2023-04-09T15:17:41.621Z,39.05
2023-04-09T15:20:14.877Z,39.03
2023-04-09T15:22:45.343Z,37.19
2023-04-09T15:25:15.477Z,36.55
2023-04-09T15:27:47.712Z,35.67
2023-04-09T15:30:17.743Z,36.25
2023-04-09T15:32:48.142Z,37.52
2023-04-09T15:35:25.071Z,37.38
2023-04-09T15:37:55.535Z,36.32
2023-04-09T15:40:25.638Z,37.49
2023-04-09T15:42:56.434Z,38.02
2023-04-09T15:45:27.643Z,37.44
2023-04-09T15:47:57.706Z,37.61
2023-04-09T15:50:27.830Z,37.80
2023-04-09T15:52:58.380Z,36.38
2023-04-09T15:55:28.559Z,37.03
2023-04-09T15:57:59.092Z,37.58
2023-04-09T16:00:29.718Z,38.26
2023-04-09T16:03:00.196Z,38.61
2023-04-09T16:05:30.261Z,38.87
2023-04-09T16:08:00.921Z,39.49
2023-04-09T16:10:31.004Z,39.72
2023-04-09T16:13:01.417Z,38.79
2023-04-09T16:15:32.215Z,38.65
2023-04-09T16:18:02.722Z,38.10
2023-04-09T16:20:32.830Z,38.03
2023-04-09T16:23:03.271Z,38.77
2023-04-09T16:25:33.405Z,38.66
2023-04-09T16:28:04.193Z,37.41
2023-04-09T16:30:34.245Z,37.51
2023-04-09T16:33:04.652Z,37.66
2023-04-09T16:35:34.720Z,39.15
2023-04-09T16:38:06.207Z,39.99
2023-04-09T16:40:36.544Z,39.85
2023-04-09T16:43:06.922Z,39.15
2023-04-09T16:45:37.077Z,39.70
2023-04-09T16:48:13.017Z,39.62
2023-04-09T16:50:43.989Z,38.71
2023-04-09T16:53:14.479Z,39.79
2023-04-09T16:55:46.031Z,39.19
2023-04-09T16:58:16.153Z,37.78
2023-04-09T17:00:48.230Z,38.71
2023-04-09T17:03:19.334Z,38.46
2023-04-09T17:05:50.313Z,37.52
2023-04-09T17:08:25.242Z,36.05
2023-04-09T17:11:03.387Z,35.01
2023-04-09T17:13:38.680Z,34.73
2023-04-09T17:16:10.542Z,34.27
2023-04-09T17:18:40.591Z,35.47
2023-04-09T17:21:11.203Z,36.39
2023-04-09T17:23:42.113Z,36.14
2023-04-09T17:26:12.557Z,35.90
2023-04-09T17:28:43.389Z,35.97
2023-04-09T17:31:17.628Z,35.37
2023-04-09T17:33:50.402Z,35.46
2023-04-09T17:36:22.513Z,36.53
2023-04-09T17:38:53.952Z,34.40
2023-04-09T17:41:25.182Z,33.80
2023-04-09T17:43:56.238Z,33.21
2023-04-09T17:46:26.847Z,32.62
2023-04-09T17:48:56.863Z,32.79
2023-04-09T17:51:28.130Z,33.36
2023-04-09T17:53:58.118Z,34.48
2023-04-09T17:56:28.632Z,34.40
2023-04-09T17:58:58.437Z,33.34
2023-04-09T18:01:29.117Z,33.21
2023-04-09T18:03:59.325Z,33.86
2023-04-09T18:06:30.375Z,35.47
2023-04-09T18:09:00.367Z,36.61
2023-04-09T18:11:30.793Z,36.65
2023-04-09T18:14:00.749Z,37.76
2023-04-09T18:16:31.190Z,36.49
2023-04-09T18:19:01.185Z,36.86
2023-04-09T18:21:32.701Z,37.27
2023-04-09T18:24:02.790Z,36.30
2023-04-09T18:26:34.960Z,36.67
2023-04-09T18:29:05.479Z,37.38
2023-04-09T18:31:36.107Z,36.57
2023-04-09T18:34:06.094Z,36.37
2023-04-09T18:36:36.715Z,35.67
2023-04-09T18:39:06.678Z,37.19
2023-04-09T18:41:36.548Z,36.46
2023-04-09T18:44:08.172Z,35.69
2023-04-09T18:46:38.407Z,35.95
2023-04-09T18:49:08.883Z,36.28
2023-04-09T18:51:38.912Z,35.64
2023-04-09T18:54:09.332Z,35.37
2023-04-09T18:56:39.384Z,35.79
2023-04-09T18:59:09.828Z,35.74
2023-04-09T19:01:39.965Z,35.77
2023-04-09T19:04:10.751Z,35.90
2023-04-09T19:06:40.935Z,36.25
2023-04-09T19:09:11.408Z,36.53
2023-04-09T19:11:41.393Z,36.02
2023-04-09T19:14:11.788Z,34.61
2023-04-09T19:16:42.024Z,34.05
2023-04-09T19:19:13.049Z,34.08
2023-04-09T19:21:43.065Z,34.02
2023-04-09T19:24:13.520Z,34.40
2023-04-09T19:26:43.504Z,33.87
2023-04-09T19:29:13.880Z,33.99
2023-04-09T19:31:43.759Z,34.63
2023-04-09T19:34:14.607Z,34.57
2023-04-09T19:36:44.665Z,34.58
2023-04-09T19:39:15.177Z,34.38
2023-04-09T19:41:45.536Z,34.86
2023-04-09T19:44:16.973Z,34.12
2023-04-09T19:46:47.217Z,33.85
2023-04-09T19:49:17.841Z,33.78
2023-04-09T19:51:47.918Z,33.19
2023-04-09T19:54:17.733Z,33.19
2023-04-09T19:56:48.575Z,33.47
2023-04-09T19:59:18.588Z,33.07
2023-04-09T20:01:49.788Z,32.62
2023-04-09T20:04:19.871Z,32.81
2023-04-09T20:06:52.719Z,33.17
2023-04-09T20:09:26.924Z,32.83
2023-04-09T20:11:59.483Z,32.71
2023-04-09T20:14:30.127Z,31.56
2023-04-09T20:17:01.853Z,30.43
2023-04-09T20:19:31.825Z,29.93
2023-04-09T20:22:02.374Z,29.52
2023-04-09T20:24:33.430Z,29.18
2023-04-09T20:27:04.973Z,28.79
2023-04-09T20:29:34.972Z,28.55
2023-04-09T20:32:05.417Z,28.36
2023-04-09T20:34:35.888Z,28.14
2023-04-09T20:37:06.809Z,28.00
2023-04-09T20:39:37.379Z,27.80
2023-04-09T20:42:07.589Z,27.63
2023-04-09T20:44:38.046Z,27.49
2023-04-09T20:47:08.468Z,27.30
2023-04-09T20:49:38.867Z,27.14
2023-04-09T20:52:09.466Z,26.96
2023-04-09T20:54:40.520Z,26.70
2023-04-09T20:57:14.123Z,26.53
2023-04-09T20:59:45.836Z,26.43
2023-04-09T21:02:16.071Z,26.27
2023-04-09T21:04:46.616Z,26.08
2023-04-09T21:07:16.878Z,26.00
2023-04-09T21:09:47.251Z,25.77
2023-04-09T21:12:17.273Z,25.67
2023-04-09T21:14:48.965Z,25.51
2023-04-09T21:17:19.023Z,25.37
2023-04-09T21:19:50.455Z,25.22
2023-04-09T21:22:20.562Z,25.21
2023-04-09T21:24:54.598Z,25.09
2023-04-09T21:27:24.928Z,24.83
2023-04-09T21:29:55.714Z,24.73
2023-04-09T21:32:26.231Z,24.96
2023-04-09T21:34:56.721Z,24.84
2023-04-09T21:37:27.877Z,24.32
2023-04-09T21:39:58.277Z,24.25
2023-04-09T21:42:28.756Z,24.15
2023-04-09T21:45:02.594Z,24.02
2023-04-09T21:47:33.281Z,23.89
2023-04-09T21:50:05.096Z,23.81
2023-04-09T21:52:35.384Z,23.68
2023-04-09T21:55:05.954Z,23.71
2023-04-09T21:57:35.956Z,23.61
2023-04-09T22:00:06.712Z,23.47
2023-04-09T22:02:36.873Z,23.47
2023-04-09T22:05:07.843Z,23.42
2023-04-09T22:07:38.498Z,23.31
2023-04-09T22:10:09.912Z,23.26
2023-04-09T22:12:39.920Z,23.17
2023-04-09T22:15:10.994Z,23.20
2023-04-09T22:17:41.669Z,23.27
2023-04-09T22:20:12.381Z,23.28
2023-04-09T22:22:43.566Z,23.21
2023-04-09T22:25:14.681Z,23.06
2023-04-09T22:27:45.046Z,22.95
2023-04-09T22:30:16.092Z,22.97
2023-04-09T22:32:46.091Z,22.79
2023-04-09T22:35:19.762Z,22.63
2023-04-09T22:37:49.852Z,22.43
2023-04-09T22:40:20.505Z,22.45
2023-04-09T22:42:50.733Z,22.39
2023-04-09T22:45:21.491Z,22.25
2023-04-09T22:47:51.852Z,22.29
2023-04-09T22:50:22.400Z,22.40
2023-04-09T22:52:52.773Z,22.29
2023-04-09T22:55:24.564Z,22.21
2023-04-09T22:57:56.229Z,22.16
2023-04-09T23:00:26.753Z,22.17
2023-04-09T23:02:57.049Z,22.12
2023-04-09T23:05:27.622Z,21.94
2023-04-09T23:07:57.647Z,22.13
2023-04-09T23:10:28.077Z,22.15
2023-04-09T23:12:58.306Z,22.23
2023-04-09T23:15:29.984Z,22.34
2023-04-09T23:18:01.069Z,22.46
2023-04-09T23:20:31.597Z,22.57
2023-04-09T23:23:01.757Z,22.62
2023-04-09T23:25:32.310Z,22.61
2023-04-09T23:28:02.365Z,22.66
2023-04-09T23:30:33.366Z,22.70
2023-04-09T23:33:03.420Z,22.70
2023-04-09T23:35:34.260Z,22.65
2023-04-09T23:38:04.266Z,22.53
2023-04-09T23:40:34.724Z,22.53
2023-04-09T23:43:04.755Z,22.37
2023-04-09T23:45:35.155Z,22.14
2023-04-09T23:48:07.182Z,22.03
2023-04-09T23:50:41.421Z,21.89
2023-04-09T23:53:12.095Z,21.95
2023-04-09T23:55:43.609Z,21.86
2023-04-09T23:58:14.095Z,21.87
